createdAt,value
2022-10-26T00:03:43.761Z,20.25
2022-10-26T00:08:46.337Z,22.48
2022-10-26T00:13:48.635Z,23.75
2022-10-26T00:18:50.860Z,20.10
2022-10-26T00:23:52.658Z,19.45
2022-10-26T00:28:55.406Z,17.40
2022-10-26T00:33:57.417Z,17.63
2022-10-26T00:38:58.969Z,16.20
2022-10-26T00:44:01.152Z,18.08
2022-10-26T00:49:09.129Z,17.73
2022-10-26T00:54:15.419Z,17.17
2022-10-26T00:59:17.916Z,15.70
2022-10-26T01:04:20.158Z,16.92
2022-10-26T01:09:22.720Z,15.85
2022-10-26T01:14:27.113Z,15.02
2022-10-26T01:19:31.762Z,16.70
2022-10-26T01:24:45.502Z,18.23
2022-10-26T01:30:08.346Z,17.27
2022-10-26T01:35:15.508Z,20.35
2022-10-26T01:40:19.755Z,17.90
2022-10-26T01:45:21.448Z,19.25
2022-10-26T01:50:23.588Z,14.52
2022-10-26T01:55:49.540Z,21.88
2022-10-26T02:01:11.141Z,18.85
2022-10-26T02:06:35.192Z,18.13
2022-10-26T02:11:41.040Z,16.23
2022-10-26T02:16:48.349Z,17.30
2022-10-26T02:21:57.560Z,16.25
2022-10-26T02:32:03.580Z,18.65
2022-10-26T02:37:07.517Z,13.98
2022-10-26T02:42:09.830Z,15.93
2022-10-26T02:47:12.076Z,16.05
2022-10-26T02:52:36.779Z,14.90
2022-10-26T02:57:41.178Z,13.65
2022-10-26T03:02:47.660Z,14.07
2022-10-26T03:07:50.256Z,12.35
2022-10-26T03:12:52.447Z,14.75
2022-10-26T03:17:54.164Z,14.77
2022-10-26T03:22:57.137Z,15.85
2022-10-26T03:27:59.991Z,14.38
2022-10-26T03:33:01.624Z,13.52
2022-10-26T03:38:03.227Z,14.45
2022-10-26T03:43:04.780Z,16.13
2022-10-26T03:48:06.333Z,13.40
2022-10-26T03:53:08.410Z,13.07
2022-10-26T03:58:09.992Z,14.32
2022-10-26T04:03:11.548Z,14.57
2022-10-26T04:08:13.196Z,13.68
2022-10-26T04:13:14.931Z,14.80
2022-10-26T04:18:16.756Z,13.10
2022-10-26T04:23:19.576Z,16.40
2022-10-26T04:28:21.181Z,14.80
2022-10-26T04:33:22.726Z,11.93
2022-10-26T04:38:24.259Z,10.02
2022-10-26T04:43:25.943Z,11.93
2022-10-26T04:48:27.481Z,11.52
2022-10-26T04:53:30.548Z,13.18
2022-10-26T04:58:32.141Z,12.73
2022-10-26T05:03:33.676Z,12.80
2022-10-26T05:08:35.241Z,12.00
2022-10-26T05:13:36.816Z,13.60
2022-10-26T05:18:38.374Z,12.55
2022-10-26T05:23:39.909Z,10.18
2022-10-26T05:28:41.445Z,10.25
2022-10-26T05:33:43.040Z,15.10
2022-10-26T05:38:44.883Z,12.63
2022-10-26T05:43:48.509Z,13.90
2022-10-26T05:48:50.166Z,12.40
2022-10-26T05:53:54.408Z,15.82
2022-10-26T05:58:56.094Z,15.02
2022-10-26T06:04:29.448Z,12.70
2022-10-26T06:09:31.364Z,16.95
2022-10-26T06:14:33.917Z,17.30
2022-10-26T06:20:06.018Z,14.40
2022-10-26T06:25:45.947Z,14.52
2022-10-26T06:30:47.598Z,17.50
2022-10-26T06:35:58.797Z,16.70
2022-10-26T06:41:01.547Z,17.27
2022-10-26T06:46:34.140Z,18.88
2022-10-26T06:51:46.077Z,17.23
2022-10-26T06:56:48.573Z,18.75
2022-10-26T07:01:50.244Z,18.05
2022-10-26T07:06:51.990Z,17.05
2022-10-26T07:11:53.573Z,18.58
2022-10-26T07:16:57.058Z,25.65
2022-10-26T07:22:00.233Z,26.63
2022-10-26T07:27:01.897Z,23.88
2022-10-26T07:32:03.561Z,22.30
2022-10-26T07:37:05.191Z,15.63
2022-10-26T07:42:06.783Z,15.90
2022-10-26T07:47:08.340Z,17.25
2022-10-26T07:52:10.913Z,17.02
2022-10-26T07:57:12.454Z,12.35
2022-10-26T08:02:14.227Z,13.57
2022-10-26T08:07:15.797Z,20.15
2022-10-26T08:12:17.552Z,15.15
2022-10-26T08:17:20.846Z,14.43
2022-10-26T08:22:22.383Z,12.75
2022-10-26T08:27:23.923Z,14.38
2022-10-26T08:32:25.552Z,12.35
2022-10-26T08:37:27.764Z,12.52
2022-10-26T08:42:43.086Z,10.73
2022-10-26T08:47:50.561Z,9.13
2022-10-26T08:53:18.758Z,10.38
2022-10-26T08:58:26.059Z,14.32
2022-10-26T09:03:27.652Z,9.43
2022-10-26T09:08:51.000Z,10.93
2022-10-26T09:14:09.131Z,10.38
2022-10-26T09:19:35.595Z,9.80
2022-10-26T09:24:42.314Z,10.23
2022-10-26T09:29:44.507Z,11.45
2022-10-26T09:34:46.015Z,11.70
2022-10-26T09:40:05.638Z,12.48
2022-10-26T09:45:16.694Z,9.65
2022-10-26T09:50:29.198Z,14.38
2022-10-26T09:55:39.476Z,11.93
2022-10-26T10:00:42.882Z,10.13
2022-10-26T10:05:52.755Z,9.23
2022-10-26T10:11:13.890Z,14.50
2022-10-26T10:16:25.031Z,14.25
2022-10-26T10:21:38.038Z,9.93
2022-10-26T10:26:57.806Z,9.18
2022-10-26T10:32:01.776Z,10.57
2022-10-26T10:37:05.224Z,9.55
2022-10-26T10:42:18.331Z,8.20
2022-10-26T10:47:23.992Z,5.43
2022-10-26T10:52:29.660Z,5.68
2022-10-26T10:57:54.265Z,5.38
2022-10-26T11:03:04.523Z,6.78
2022-10-26T11:08:16.236Z,4.80
2022-10-26T11:13:24.308Z,6.85
2022-10-26T11:18:37.549Z,8.97
2022-10-26T11:23:45.780Z,6.00
2022-10-26T11:29:05.845Z,4.93
2022-10-26T11:34:25.232Z,4.82
2022-10-26T11:39:53.404Z,4.93
2022-10-26T11:45:27.141Z,7.00
2022-10-26T11:50:40.107Z,4.50
2022-10-26T11:55:43.133Z,4.38
2022-10-26T12:00:59.434Z,4.45
2022-10-26T12:06:01.168Z,3.47
2022-10-26T12:11:13.695Z,3.72
2022-10-26T12:16:33.197Z,5.95
2022-10-26T12:21:35.312Z,4.30
2022-10-26T12:26:36.803Z,4.63
2022-10-26T12:31:38.376Z,4.18
2022-10-26T12:36:55.112Z,4.60
2022-10-26T12:42:09.530Z,4.53
2022-10-26T12:47:31.021Z,3.92
2022-10-26T12:53:08.412Z,5.45
2022-10-26T12:58:31.468Z,4.95
2022-10-26T13:03:48.123Z,5.07
2022-10-26T13:08:58.636Z,2.90
2022-10-26T13:14:07.609Z,4.90
2022-10-26T13:19:26.913Z,3.63
2022-10-26T13:24:31.458Z,3.63
2022-10-26T13:29:53.515Z,4.13
2022-10-26T13:34:57.741Z,3.33
2022-10-26T13:40:00.345Z,3.38
2022-10-26T13:45:28.035Z,3.70
2022-10-26T13:50:49.317Z,3.35
2022-10-26T13:55:54.218Z,3.38
2022-10-26T14:01:15.468Z,3.45
2022-10-26T14:06:19.884Z,4.40
2022-10-26T14:11:27.020Z,3.72
2022-10-26T14:16:31.409Z,4.68
2022-10-26T14:21:33.028Z,3.65
2022-10-26T14:26:41.628Z,4.88
2022-10-26T14:31:43.219Z,3.92
2022-10-26T14:37:02.437Z,4.15
2022-10-26T14:42:36.150Z,5.57
2022-10-26T14:47:49.271Z,5.43
2022-10-26T14:52:57.347Z,8.70
2022-10-26T14:58:17.154Z,8.53
2022-10-26T15:03:18.761Z,16.20
2022-10-26T15:08:56.304Z,14.32
2022-10-26T15:13:59.615Z,9.77
2022-10-26T15:19:09.771Z,6.55
2022-10-26T15:24:20.628Z,12.93
2022-10-26T15:29:45.399Z,20.13
2022-10-26T15:35:06.896Z,15.27
2022-10-26T15:40:08.692Z,12.35
2022-10-26T15:45:26.133Z,13.65
2022-10-26T15:50:29.149Z,18.52
2022-10-26T15:55:30.958Z,19.95
2022-10-26T16:00:32.524Z,18.10
2022-10-26T16:05:34.155Z,18.83
2022-10-26T16:10:35.743Z,17.13
2022-10-26T16:15:37.391Z,19.92
2022-10-26T16:20:39.111Z,16.92
2022-10-26T16:25:43.992Z,17.27
2022-10-26T16:30:45.650Z,13.80
2022-10-26T16:35:55.362Z,14.32
2022-10-26T16:41:10.413Z,17.00
2022-10-26T16:46:20.218Z,17.60
2022-10-26T16:51:27.053Z,12.68
2022-10-26T16:56:30.247Z,13.90
2022-10-26T17:01:32.413Z,18.52
2022-10-26T17:06:34.050Z,16.25
2022-10-26T17:11:35.643Z,17.40
2022-10-26T17:16:37.184Z,15.32
2022-10-26T17:21:38.748Z,20.48
2022-10-26T17:26:41.738Z,14.68
2022-10-26T17:31:43.286Z,17.17
2022-10-26T17:36:44.849Z,21.90
2022-10-26T17:41:46.632Z,18.33
2022-10-26T17:46:48.204Z,19.90
2022-10-26T17:51:49.740Z,17.65
2022-10-26T17:56:51.273Z,19.63
2022-10-26T18:01:52.931Z,17.98
2022-10-26T18:06:54.586Z,19.65
2022-10-26T18:11:56.571Z,18.90
2022-10-26T18:16:58.234Z,21.70
2022-10-26T18:22:00.536Z,19.30
2022-10-26T18:27:02.127Z,21.15
2022-10-26T18:32:03.859Z,24.50
2022-10-26T18:37:05.406Z,23.10
2022-10-26T18:42:06.986Z,21.95
2022-10-26T18:47:08.521Z,24.15
2022-10-26T18:52:10.116Z,19.55
2022-10-26T18:57:11.684Z,21.60
2022-10-26T19:02:14.743Z,28.52
2022-10-26T19:07:16.944Z,30.23
2022-10-26T19:12:18.549Z,26.55
2022-10-26T19:17:22.032Z,26.65
2022-10-26T19:22:23.660Z,31.65
2022-10-26T19:27:25.233Z,29.27
2022-10-26T19:32:28.762Z,26.40
2022-10-26T19:37:30.736Z,26.80
2022-10-26T19:42:32.304Z,28.92
2022-10-26T19:47:33.865Z,28.40
2022-10-26T19:52:36.599Z,28.25
2022-10-26T19:57:38.249Z,27.33
2022-10-26T20:02:39.858Z,26.42
2022-10-26T20:07:41.415Z,24.52
2022-10-26T20:12:42.952Z,23.05
2022-10-26T20:17:44.514Z,24.08
2022-10-26T20:22:46.109Z,27.00
2022-10-26T20:27:48.492Z,29.40
2022-10-26T20:32:50.231Z,26.27
2022-10-26T20:37:53.162Z,33.70
2022-10-26T20:42:55.430Z,28.92
2022-10-26T20:47:58.926Z,29.35
2022-10-26T20:53:10.790Z,27.52
2022-10-26T20:58:20.515Z,26.02
2022-10-26T21:03:22.185Z,29.48
2022-10-26T21:08:23.814Z,28.63
2022-10-26T21:13:25.412Z,31.23
2022-10-26T21:18:26.983Z,27.67
2022-10-26T21:23:36.653Z,24.27
2022-10-26T21:28:45.820Z,26.90
2022-10-26T21:33:48.204Z,27.83
2022-10-26T21:38:49.794Z,26.90
2022-10-26T21:44:03.219Z,26.65
2022-10-26T21:49:11.363Z,27.10
2022-10-26T21:54:12.904Z,24.83
2022-10-26T21:59:14.473Z,28.73
2022-10-26T22:04:16.017Z,27.55
2022-10-26T22:09:17.796Z,27.00
2022-10-26T22:14:20.031Z,28.30
2022-10-26T22:19:21.597Z,31.55
2022-10-26T22:24:23.195Z,28.33
2022-10-26T22:29:24.766Z,30.27
2022-10-26T22:34:26.362Z,28.23
2022-10-26T22:39:27.890Z,30.75
2022-10-26T22:44:29.439Z,29.95
2022-10-26T22:49:30.968Z,27.17
2022-10-26T22:54:32.539Z,29.05
2022-10-26T22:59:34.088Z,31.75
2022-10-26T23:04:35.683Z,28.42
2022-10-26T23:09:37.229Z,30.95
2022-10-26T23:14:38.757Z,30.77
2022-10-26T23:19:40.285Z,30.13
2022-10-26T23:24:41.840Z,31.85
2022-10-26T23:34:45.867Z,33.08
2022-10-26T23:39:47.404Z,30.48
2022-10-26T23:44:48.932Z,27.70
2022-10-26T23:49:50.515Z,29.83
2022-10-26T23:54:52.053Z,28.80
2022-10-26T23:59:53.832Z,29.92
